createdAt,value
2023-04-28T00:01:58.514Z,71.00
2023-04-28T00:04:28.098Z,71.30
2023-04-28T00:07:01.961Z,71.30
2023-04-28T00:09:31.929Z,71.50
2023-04-28T00:12:04.385Z,71.40
2023-04-28T00:14:37.131Z,71.30
2023-04-28T00:17:05.235Z,71.60
2023-04-28T00:19:33.412Z,71.90
2023-04-28T00:22:01.371Z,72.00
2023-04-28T00:24:29.337Z,72.00
2023-04-28T00:26:58.887Z,72.40
2023-04-28T00:29:27.516Z,72.30
2023-04-28T00:31:59.262Z,72.30
2023-04-28T00:34:28.306Z,72.20
2023-04-28T00:36:56.312Z,72.30
2023-04-28T00:39:28.020Z,72.30
2023-04-28T00:41:59.482Z,72.60
2023-04-28T00:44:32.928Z,72.80
2023-04-28T00:47:06.020Z,73.00
2023-04-28T00:49:35.393Z,73.00
2023-04-28T00:52:06.700Z,72.90
2023-04-28T00:54:35.508Z,73.00
2023-04-28T00:57:06.601Z,73.00
2023-04-28T00:59:34.795Z,73.10
2023-04-28T01:02:07.876Z,72.90
2023-04-28T01:04:37.179Z,72.90
2023-04-28T01:07:05.877Z,72.80
2023-04-28T01:09:34.224Z,72.90
2023-04-28T01:12:02.832Z,72.90
2023-04-28T01:14:42.859Z,73.10
2023-04-28T01:17:12.753Z,72.90
2023-04-28T01:19:41.704Z,72.80
2023-04-28T01:22:15.580Z,72.90
2023-04-28T01:24:46.891Z,73.00
2023-04-28T01:27:16.598Z,72.80
2023-04-28T01:29:46.005Z,72.70
2023-04-28T01:32:15.862Z,72.70
2023-04-28T01:34:44.091Z,72.70
2023-04-28T01:37:12.207Z,73.00
2023-04-28T01:39:40.398Z,73.20
2023-04-28T01:42:10.400Z,73.30
2023-04-28T01:44:38.739Z,73.30
2023-04-28T01:47:06.839Z,73.50
2023-04-28T01:49:37.097Z,73.90
2023-04-28T01:52:05.580Z,74.10
2023-04-28T01:55:10.432Z,74.30
2023-04-28T01:57:59.517Z,74.40
2023-04-28T02:00:30.892Z,74.60
2023-04-28T02:02:59.245Z,74.70
2023-04-28T02:05:28.514Z,74.90
2023-04-28T02:07:57.198Z,74.90
2023-04-28T02:10:26.595Z,74.90
2023-04-28T02:12:54.892Z,75.10
2023-04-28T02:15:24.996Z,74.90
2023-04-28T02:17:54.713Z,75.00
2023-04-28T02:20:23.030Z,75.20
2023-04-28T02:22:51.151Z,75.30
2023-04-28T02:25:19.160Z,75.50
2023-04-28T02:27:47.575Z,75.50
2023-04-28T02:30:15.872Z,75.70
2023-04-28T02:32:47.246Z,75.80
2023-04-28T02:35:17.854Z,75.60
2023-04-28T02:37:46.521Z,75.90
2023-04-28T02:40:14.928Z,76.20
2023-04-28T02:42:43.173Z,76.10
2023-04-28T02:45:12.027Z,76.00
2023-04-28T02:47:40.311Z,76.10
2023-04-28T02:50:11.502Z,76.10
2023-04-28T02:52:39.704Z,76.10
2023-04-28T02:55:08.163Z,76.00
2023-04-28T02:57:36.352Z,76.10
2023-04-28T03:00:05.441Z,76.20
2023-04-28T03:02:42.499Z,76.20
2023-04-28T03:05:12.999Z,76.40
2023-04-28T03:07:41.360Z,76.40
2023-04-28T03:10:09.927Z,76.50
2023-04-28T03:12:38.261Z,76.60
2023-04-28T03:15:09.099Z,76.80
2023-04-28T03:17:42.445Z,76.80
2023-04-28T03:20:16.269Z,76.60
2023-04-28T03:22:44.591Z,76.60
2023-04-28T03:25:12.593Z,76.50
2023-04-28T03:27:49.217Z,76.50
2023-04-28T03:30:17.256Z,76.50
2023-04-28T03:32:45.307Z,76.60
2023-04-28T03:35:14.870Z,76.50
2023-04-28T03:37:44.582Z,76.90
2023-04-28T03:40:12.892Z,77.00
2023-04-28T03:43:03.973Z,77.30
2023-04-28T03:45:40.731Z,77.50
2023-04-28T03:48:17.028Z,77.50
2023-04-28T03:50:46.842Z,77.40
2023-04-28T03:53:16.524Z,77.40
2023-04-28T03:55:44.918Z,77.40
2023-04-28T03:58:13.779Z,77.30
2023-04-28T04:00:42.231Z,77.30
2023-04-28T04:03:10.579Z,77.50
2023-04-28T04:05:41.023Z,77.40
2023-04-28T04:08:11.405Z,77.60
2023-04-28T04:10:39.650Z,77.70
2023-04-28T04:13:07.976Z,77.80
2023-04-28T04:15:36.300Z,77.80
2023-04-28T04:18:05.782Z,77.90
2023-04-28T04:20:54.107Z,77.90
2023-04-28T04:23:24.398Z,77.90
2023-04-28T04:25:52.532Z,77.90
2023-04-28T04:28:21.007Z,78.00
2023-04-28T04:30:50.045Z,77.80
2023-04-28T04:33:18.095Z,77.70
2023-04-28T04:35:47.842Z,77.80
2023-04-28T04:38:16.285Z,77.70
2023-04-28T04:40:46.264Z,77.80
2023-04-28T04:43:15.917Z,77.90
2023-04-28T04:45:50.829Z,77.90
2023-04-28T04:48:19.100Z,77.90
2023-04-28T04:50:47.747Z,77.80
2023-04-28T04:53:16.575Z,77.80
2023-04-28T04:55:47.247Z,77.70
2023-04-28T04:58:16.738Z,77.70
2023-04-28T05:00:45.012Z,77.70
2023-04-28T05:03:14.663Z,77.80
2023-04-28T05:05:46.330Z,77.70
2023-04-28T05:08:21.792Z,77.80
2023-04-28T05:10:51.372Z,77.80
2023-04-28T05:13:20.787Z,77.80
2023-04-28T05:15:53.529Z,77.80
2023-04-28T05:18:44.255Z,77.70
2023-04-28T05:21:12.890Z,77.70
2023-04-28T05:23:41.626Z,77.70
2023-04-28T05:26:11.390Z,77.70
2023-04-28T05:28:40.904Z,77.70
2023-04-28T05:31:10.410Z,77.80
2023-04-28T05:33:39.622Z,77.80
2023-04-28T05:36:08.398Z,77.80
2023-04-28T05:38:37.315Z,77.80
2023-04-28T05:41:07.792Z,77.90
2023-04-28T05:43:38.010Z,77.90
2023-04-28T05:46:14.806Z,77.80
2023-04-28T05:48:50.971Z,77.90
2023-04-28T05:51:19.418Z,77.90
2023-04-28T05:53:48.964Z,77.80
2023-04-28T05:56:17.580Z,77.60
2023-04-28T05:58:50.521Z,77.70
2023-04-28T06:01:18.521Z,77.70
2023-04-28T06:03:47.950Z,77.90
2023-04-28T06:06:16.515Z,77.90
2023-04-28T06:08:44.857Z,77.90
2023-04-28T06:11:13.031Z,78.00
2023-04-28T06:13:41.774Z,78.00
2023-04-28T06:16:11.742Z,78.00
2023-04-28T06:18:40.097Z,78.00
2023-04-28T06:21:09.454Z,78.00
2023-04-28T06:23:40.783Z,77.90
2023-04-28T06:26:09.456Z,77.90
2023-04-28T06:28:40.494Z,77.90
2023-04-28T06:31:11.585Z,78.00
2023-04-28T06:33:40.808Z,77.90
2023-04-28T06:36:21.849Z,78.20
2023-04-28T06:38:50.095Z,78.20
2023-04-28T06:41:18.140Z,78.30
2023-04-28T06:43:51.303Z,78.00
2023-04-28T06:46:27.112Z,78.10
2023-04-28T06:48:55.224Z,78.10
2023-04-28T06:51:23.549Z,78.00
2023-04-28T06:53:53.358Z,78.10
2023-04-28T06:56:22.269Z,78.00
2023-04-28T06:58:51.076Z,78.00
2023-04-28T07:01:19.640Z,78.00
2023-04-28T07:03:49.679Z,77.90
2023-04-28T07:06:18.421Z,77.90
2023-04-28T07:08:46.927Z,78.00
2023-04-28T07:11:16.782Z,78.20
2023-04-28T07:13:46.549Z,78.10
2023-04-28T07:16:15.047Z,78.00
2023-04-28T07:18:43.682Z,78.20
2023-04-28T07:21:13.331Z,77.80
2023-04-28T07:23:41.791Z,77.90
2023-04-28T07:26:12.207Z,78.00
2023-04-28T07:28:44.229Z,78.00
2023-04-28T07:31:12.672Z,78.20
2023-04-28T07:33:40.776Z,78.00
2023-04-28T07:36:09.657Z,78.30
2023-04-28T07:38:39.689Z,78.40
2023-04-28T07:41:11.178Z,78.20
2023-04-28T07:43:40.366Z,77.70
2023-04-28T07:46:10.229Z,77.90
2023-04-28T07:48:38.403Z,77.90
2023-04-28T07:51:07.191Z,78.00
2023-04-28T07:53:35.616Z,77.90
2023-04-28T07:56:05.884Z,78.10
2023-04-28T07:58:34.781Z,78.10
2023-04-28T08:01:03.056Z,78.30
2023-04-28T08:03:32.650Z,78.50
2023-04-28T08:06:04.485Z,78.40
2023-04-28T08:08:34.076Z,78.30
2023-04-28T08:11:02.488Z,77.90
2023-04-28T08:13:32.123Z,77.80
2023-04-28T08:16:01.831Z,77.90
2023-04-28T08:18:30.596Z,77.80
2023-04-28T08:20:58.664Z,77.80
2023-04-28T08:23:28.451Z,77.90
2023-04-28T08:26:06.521Z,78.10
2023-04-28T08:28:37.812Z,78.10
2023-04-28T08:46:10.265Z,77.50
2023-04-28T08:48:41.267Z,77.20
2023-04-28T08:51:09.608Z,77.10
2023-04-28T08:54:06.123Z,76.70
2023-04-28T08:56:33.382Z,76.80
2023-04-28T08:59:03.629Z,76.50
2023-04-28T09:01:33.538Z,76.40
2023-04-28T09:04:13.512Z,76.20
2023-04-28T09:06:42.736Z,76.20
2023-04-28T09:09:22.072Z,76.40
2023-04-28T09:11:53.749Z,76.10
2023-04-28T09:14:22.085Z,76.20
2023-04-28T09:16:52.172Z,76.20
2023-04-28T09:19:20.768Z,76.30
2023-04-28T09:21:50.044Z,76.20
2023-04-28T09:24:31.201Z,76.10
2023-04-28T09:27:00.933Z,75.70
2023-04-28T09:29:29.320Z,75.20
2023-04-28T09:32:13.432Z,75.30
2023-04-28T09:34:54.112Z,75.00
2023-04-28T09:37:25.101Z,75.30
2023-04-28T09:39:54.090Z,75.70
2023-04-28T09:42:35.395Z,75.80
2023-04-28T09:45:04.798Z,75.80
2023-04-28T09:47:35.467Z,75.80
2023-04-28T09:50:05.078Z,75.70
2023-04-28T09:52:34.956Z,75.70
2023-04-28T09:55:04.370Z,75.60
2023-04-28T09:57:33.949Z,74.90
2023-04-28T10:00:02.777Z,75.00
2023-04-28T10:05:12.384Z,74.10
2023-04-28T10:07:41.539Z,73.80
2023-04-28T10:10:12.661Z,73.80
2023-04-28T10:12:45.256Z,73.20
2023-04-28T10:15:14.284Z,73.90
2023-04-28T10:17:43.820Z,73.50
2023-04-28T10:20:16.058Z,72.70
2023-04-28T10:22:54.391Z,71.80
2023-04-28T10:25:27.675Z,70.80
2023-04-28T10:28:00.314Z,69.60
2023-04-28T10:30:35.510Z,69.50
2023-04-28T10:33:29.680Z,69.60
2023-04-28T10:35:58.704Z,71.00
2023-04-28T10:38:32.105Z,71.20
2023-04-28T10:41:03.378Z,71.10
2023-04-28T10:43:35.735Z,71.70
2023-04-28T10:49:07.144Z,71.00
2023-04-28T10:51:38.349Z,71.40
2023-04-28T10:54:24.805Z,71.10
2023-04-28T10:57:12.720Z,70.90
2023-04-28T10:59:41.965Z,70.20
2023-04-28T11:02:29.590Z,69.00
2023-04-28T11:05:12.654Z,67.20
2023-04-28T11:07:42.842Z,67.70
2023-04-28T11:10:11.215Z,67.50
2023-04-28T11:13:01.601Z,66.90
2023-04-28T11:15:30.278Z,68.20
2023-04-28T11:17:59.449Z,68.50
2023-04-28T11:20:28.516Z,69.60
2023-04-28T11:22:58.373Z,70.40
2023-04-28T11:25:27.014Z,70.30
2023-04-28T11:28:04.372Z,71.70
2023-04-28T11:30:32.759Z,71.30
2023-04-28T11:33:01.415Z,71.50
2023-04-28T11:35:43.210Z,70.80
2023-04-28T11:38:12.664Z,71.20
2023-04-28T11:40:41.009Z,71.10
2023-04-28T11:43:09.687Z,71.80
2023-04-28T11:45:38.540Z,72.30
2023-04-28T11:48:21.457Z,72.60
2023-04-28T11:50:49.527Z,72.80
2023-04-28T11:53:19.228Z,73.10
2023-04-28T11:55:47.127Z,73.40
2023-04-28T11:58:19.156Z,73.70
2023-04-28T12:00:47.525Z,73.90
2023-04-28T12:03:16.305Z,74.10
2023-04-28T12:05:46.273Z,73.60
2023-04-28T12:08:15.940Z,73.80
2023-04-28T12:10:45.645Z,74.00
2023-04-28T12:13:17.443Z,74.20
2023-04-28T12:15:45.797Z,74.50
2023-04-28T12:18:16.835Z,74.30
2023-04-28T12:20:45.159Z,74.20
2023-04-28T12:23:13.241Z,74.40
2023-04-28T12:25:47.582Z,74.50
2023-04-28T12:28:15.854Z,74.10
2023-04-28T12:30:44.108Z,74.30
2023-04-28T12:33:23.885Z,73.60
2023-04-28T12:35:53.065Z,73.70
2023-04-28T12:38:21.149Z,73.10
2023-04-28T12:40:52.400Z,73.20
2023-04-28T12:43:23.135Z,71.20
2023-04-28T12:45:53.844Z,69.70
2023-04-28T12:48:24.236Z,69.50
2023-04-28T12:50:52.792Z,68.70
2023-04-28T12:53:21.377Z,68.20
2023-04-28T12:55:49.412Z,67.50
2023-04-28T12:58:20.791Z,66.60
2023-04-28T13:00:49.207Z,67.00
2023-04-28T13:03:18.051Z,66.30
2023-04-28T13:05:51.667Z,67.20
2023-04-28T13:08:20.335Z,68.80
2023-04-28T13:10:51.042Z,69.70
2023-04-28T13:13:22.798Z,70.80
2023-04-28T13:15:51.963Z,71.40
2023-04-28T13:18:20.459Z,71.90
2023-04-28T13:20:48.473Z,72.00
2023-04-28T13:23:16.579Z,72.40
2023-04-28T13:25:44.906Z,71.80
2023-04-28T13:28:15.190Z,72.30
2023-04-28T13:30:46.057Z,72.50
2023-04-28T13:33:14.716Z,72.90
2023-04-28T13:35:45.365Z,73.10
2023-04-28T13:38:20.413Z,73.10
2023-04-28T13:44:02.696Z,73.10
2023-04-28T13:46:32.170Z,73.30
2023-04-28T13:49:00.474Z,73.30
2023-04-28T13:51:28.863Z,73.20
2023-04-28T13:53:57.285Z,73.70
2023-04-28T13:56:25.777Z,74.30
2023-04-28T13:58:54.488Z,73.50
2023-04-28T14:01:23.124Z,73.70
2023-04-28T14:03:52.994Z,73.90
2023-04-28T14:06:23.310Z,74.00
2023-04-28T14:08:52.467Z,73.40
2023-04-28T14:11:25.194Z,73.10
2023-04-28T14:13:54.087Z,73.30
2023-04-28T14:16:22.382Z,73.50
2023-04-28T14:18:51.888Z,73.10
2023-04-28T14:21:20.112Z,72.20
2023-04-28T14:23:49.010Z,72.30
2023-04-28T14:26:19.917Z,72.20
2023-04-28T14:28:48.066Z,72.20
2023-04-28T14:31:16.638Z,71.70
2023-04-28T14:33:45.512Z,71.60
2023-04-28T14:36:15.322Z,72.00
2023-04-28T14:38:45.256Z,72.20
2023-04-28T14:41:15.721Z,71.60
2023-04-28T14:43:44.873Z,71.70
2023-04-28T14:46:15.802Z,71.80
2023-04-28T14:48:45.484Z,71.50
2023-04-28T14:51:20.562Z,71.70
2023-04-28T14:53:48.887Z,71.50
2023-04-28T14:56:18.958Z,72.00
2023-04-28T14:58:50.375Z,72.50
2023-04-28T15:01:19.911Z,73.20
2023-04-28T15:03:55.929Z,73.60
2023-04-28T15:06:26.939Z,73.80
2023-04-28T15:08:57.247Z,74.00
2023-04-28T15:11:25.974Z,74.30
2023-04-28T15:13:55.489Z,73.90
2023-04-28T15:16:24.024Z,72.80
2023-04-28T15:18:52.323Z,72.70
2023-04-28T15:21:20.934Z,72.60
2023-04-28T15:23:50.433Z,71.60
2023-04-28T15:26:19.589Z,71.50
2023-04-28T15:28:48.052Z,71.20
2023-04-28T15:31:16.270Z,71.40
2023-04-28T15:33:47.172Z,71.80
2023-04-28T15:36:18.750Z,71.90
2023-04-28T15:38:49.465Z,71.50
2023-04-28T15:41:19.401Z,71.10
2023-04-28T15:43:52.488Z,71.00
2023-04-28T15:46:21.775Z,71.70
2023-04-28T15:48:50.142Z,72.00
2023-04-28T15:51:18.829Z,72.70
2023-04-28T15:53:47.228Z,72.70
2023-04-28T15:56:17.465Z,72.80
2023-04-28T15:58:51.773Z,72.50
2023-04-28T16:01:20.030Z,72.70
2023-04-28T16:03:49.252Z,72.60
2023-04-28T16:06:17.750Z,72.90
2023-04-28T16:08:46.480Z,72.80
2023-04-28T16:11:19.609Z,73.30
2023-04-28T16:13:50.138Z,73.80
2023-04-28T16:16:18.734Z,74.10
2023-04-28T16:18:47.002Z,74.30
2023-04-28T16:21:17.427Z,74.30
2023-04-28T16:23:46.268Z,74.50
2023-04-28T16:26:15.023Z,74.40
2023-04-28T16:28:43.337Z,74.50
2023-04-28T16:31:13.858Z,74.20
2023-04-28T16:33:42.663Z,73.90
2023-04-28T16:36:12.046Z,73.90
2023-04-28T16:38:41.125Z,74.30
2023-04-28T16:41:10.188Z,74.40
2023-04-28T16:43:38.689Z,74.30
2023-04-28T16:46:07.759Z,74.00
2023-04-28T16:48:37.679Z,73.90
2023-04-28T16:51:14.456Z,74.00
2023-04-28T16:53:45.846Z,74.70
2023-04-28T16:56:15.229Z,75.50
2023-04-28T16:58:44.134Z,75.70
2023-04-28T17:01:12.711Z,76.10
2023-04-28T17:03:45.108Z,76.30
2023-04-28T17:06:13.495Z,76.50
2023-04-28T17:08:42.264Z,76.60
2023-04-28T17:11:10.275Z,76.90
2023-04-28T17:13:38.700Z,77.10
2023-04-28T17:16:07.094Z,77.30
2023-04-28T17:18:36.991Z,77.60
2023-04-28T17:21:06.637Z,77.70
2023-04-28T17:23:35.782Z,77.70
2023-04-28T17:26:05.089Z,77.50
2023-04-28T17:28:33.727Z,77.50
2023-04-28T17:31:03.752Z,77.50
2023-04-28T17:33:32.363Z,77.40
2023-04-28T17:36:03.135Z,77.50
2023-04-28T17:38:33.895Z,77.40
2023-04-28T17:41:09.818Z,77.20
2023-04-28T17:43:39.986Z,77.40
2023-04-28T17:46:09.352Z,77.40
2023-04-28T17:48:37.554Z,77.50
2023-04-28T17:51:07.200Z,77.60
2023-04-28T17:53:37.381Z,77.60
2023-04-28T17:56:08.781Z,77.60
2023-04-28T17:58:38.545Z,77.60
2023-04-28T18:01:07.969Z,77.60
2023-04-28T18:03:36.700Z,77.50
2023-04-28T18:06:06.151Z,77.70
2023-04-28T18:08:35.075Z,77.60
2023-04-28T18:11:08.304Z,77.60
2023-04-28T18:16:47.889Z,77.50
2023-04-28T18:19:16.418Z,77.60
2023-04-28T18:22:12.969Z,77.60
2023-04-28T18:36:37.673Z,77.50
2023-04-28T18:39:17.150Z,77.60
2023-04-28T18:41:45.687Z,77.70
2023-04-28T18:44:16.071Z,77.90
2023-04-28T18:46:45.541Z,77.90
2023-04-28T18:49:14.642Z,77.90
2023-04-28T18:51:43.727Z,78.10
2023-04-28T18:54:11.679Z,78.10
2023-04-28T18:56:40.676Z,78.10
2023-04-28T18:59:09.731Z,78.00
2023-04-28T19:01:39.860Z,77.80
2023-04-28T19:04:08.555Z,77.80
2023-04-28T19:06:39.971Z,77.70
2023-04-28T19:09:08.903Z,77.60
2023-04-28T19:11:38.218Z,77.60
2023-04-28T19:14:07.129Z,77.80
2023-04-28T19:16:36.012Z,77.80
2023-04-28T19:19:08.909Z,77.70
2023-04-28T19:21:41.899Z,77.80
2023-04-28T19:24:10.442Z,77.80
2023-04-28T19:26:40.967Z,77.70
2023-04-28T19:29:09.554Z,77.70
2023-04-28T19:31:38.706Z,77.90
2023-04-28T19:34:08.200Z,78.00
2023-04-28T19:36:38.054Z,78.00
2023-04-28T19:39:08.293Z,77.90
2023-04-28T19:41:38.059Z,77.80
2023-04-28T19:44:07.234Z,77.80
2023-04-28T19:46:35.993Z,77.70
2023-04-28T19:49:04.482Z,77.60
2023-04-28T19:51:35.769Z,77.50
2023-04-28T19:54:06.065Z,77.50
2023-04-28T19:56:35.560Z,77.50
2023-04-28T19:59:04.010Z,77.50
2023-04-28T20:01:33.831Z,77.50
2023-04-28T20:04:04.894Z,77.60
2023-04-28T20:06:34.714Z,77.60
2023-04-28T20:09:12.301Z,77.60
2023-04-28T20:11:40.522Z,77.50
2023-04-28T20:14:08.812Z,77.50
2023-04-28T20:16:37.734Z,77.60
2023-04-28T20:19:06.270Z,77.50
2023-04-28T20:21:37.676Z,77.60
2023-04-28T20:24:06.081Z,77.70
2023-04-28T20:26:36.776Z,77.70
2023-04-28T20:29:08.397Z,77.80
2023-04-28T20:31:39.822Z,77.80
2023-04-28T20:34:08.205Z,78.00
2023-04-28T20:36:42.760Z,77.90
2023-04-28T20:39:12.938Z,78.00
2023-04-28T20:41:42.609Z,78.00
2023-04-28T20:44:11.902Z,78.10
2023-04-28T20:46:40.465Z,78.10
2023-04-28T20:49:08.618Z,78.20
2023-04-28T20:51:41.411Z,78.10
2023-04-28T20:54:12.618Z,78.20
2023-04-28T20:56:42.128Z,78.20
2023-04-28T20:59:32.202Z,78.20
2023-04-28T21:02:01.211Z,78.30
2023-04-28T21:04:29.060Z,78.30
2023-04-28T21:06:59.502Z,78.30
2023-04-28T21:09:27.593Z,78.30
2023-04-28T21:11:57.929Z,78.40
2023-04-28T21:14:27.917Z,78.40
2023-04-28T21:16:57.503Z,78.40
2023-04-28T21:19:26.395Z,78.40
2023-04-28T21:21:56.045Z,78.30
2023-04-28T21:24:29.982Z,78.30
2023-04-28T21:26:58.571Z,78.40
2023-04-28T21:29:28.024Z,78.40
2023-04-28T21:31:57.655Z,78.40
2023-04-28T21:34:26.164Z,78.30
2023-04-28T21:36:55.912Z,78.30
2023-04-28T21:39:28.013Z,78.20
2023-04-28T21:41:59.430Z,78.30
2023-04-28T21:44:27.695Z,78.30
2023-04-28T21:46:55.803Z,78.30
2023-04-28T21:49:23.944Z,78.40
2023-04-28T21:51:52.275Z,78.50
2023-04-28T21:54:24.009Z,78.40
2023-04-28T21:56:53.638Z,78.40
2023-04-28T21:59:23.448Z,78.50
2023-04-28T22:01:52.917Z,78.50
2023-04-28T22:07:03.900Z,78.40
2023-04-28T22:09:33.863Z,78.40
2023-04-28T22:12:03.245Z,78.50
2023-04-28T22:17:04.970Z,78.50
2023-04-28T22:19:38.628Z,78.50
2023-04-28T22:22:08.035Z,78.40
2023-04-28T22:24:37.428Z,78.50
2023-04-28T22:27:06.856Z,78.50
2023-04-28T22:29:37.043Z,78.60
2023-04-28T22:32:09.268Z,78.60
2023-04-28T22:34:42.884Z,78.60
2023-04-28T22:37:14.041Z,78.60
2023-04-28T22:42:33.852Z,78.50
2023-04-28T22:45:07.378Z,78.50
2023-04-28T22:47:36.406Z,78.60
2023-04-28T22:50:10.195Z,78.50
2023-04-28T22:52:40.849Z,78.70
2023-04-28T22:55:12.435Z,78.70
2023-04-28T22:57:42.265Z,78.60
2023-04-28T23:00:22.058Z,78.70
2023-04-28T23:02:51.032Z,78.60
2023-04-28T23:05:19.441Z,78.60
2023-04-28T23:07:50.046Z,78.50
2023-04-28T23:10:20.994Z,78.50
2023-04-28T23:12:52.531Z,78.40
2023-04-28T23:15:23.600Z,78.60
2023-04-28T23:17:52.555Z,78.50
2023-04-28T23:20:22.899Z,78.50
2023-04-28T23:22:57.288Z,78.60
2023-04-28T23:25:25.800Z,78.60
2023-04-28T23:27:55.169Z,78.60
2023-04-28T23:30:25.417Z,78.50
2023-04-28T23:32:56.731Z,78.40
2023-04-28T23:35:26.092Z,78.40
2023-04-28T23:37:56.246Z,78.40
2023-04-28T23:40:24.781Z,78.50
2023-04-28T23:42:52.877Z,78.50
2023-04-28T23:45:21.221Z,78.50
2023-04-28T23:47:52.295Z,78.50
2023-04-28T23:50:20.287Z,78.50
2023-04-28T23:52:48.826Z,78.50
2023-04-28T23:55:18.685Z,78.50
2023-04-28T23:57:46.971Z,78.50
